createdAt,value
2022-10-10T00:01:39.512Z,99.13
2022-10-10T00:06:43.432Z,98.80
2022-10-10T00:11:45.960Z,98.74
2022-10-10T00:16:48.476Z,99.08
2022-10-10T00:21:52.360Z,100.00
2022-10-10T00:26:56.588Z,99.95
2022-10-10T00:31:59.164Z,99.40
2022-10-10T00:37:03.472Z,100.00
2022-10-10T00:42:06.400Z,99.96
2022-10-10T00:47:09.552Z,100.00
2022-10-10T00:52:13.484Z,100.00
2022-10-10T00:57:16.262Z,100.00
2022-10-10T01:02:18.791Z,100.00
2022-10-10T01:07:25.361Z,100.00
2022-10-10T01:12:33.921Z,100.00
2022-10-10T01:17:43.997Z,100.00
2022-10-10T01:23:04.809Z,100.00
2022-10-10T01:28:14.252Z,100.00
2022-10-10T01:33:24.935Z,100.00
2022-10-10T01:38:37.121Z,100.00
2022-10-10T01:43:39.674Z,100.00
2022-10-10T01:48:46.859Z,100.00
2022-10-10T01:54:02.872Z,100.00
2022-10-10T01:59:18.179Z,100.00
2022-10-10T02:04:35.296Z,100.00
2022-10-10T02:09:40.687Z,100.00
2022-10-10T02:14:46.915Z,100.00
2022-10-10T02:19:54.128Z,100.00
2022-10-10T02:24:57.169Z,100.00
2022-10-10T02:30:02.365Z,100.00
2022-10-10T02:35:10.020Z,100.00
2022-10-10T02:40:17.787Z,100.00
2022-10-10T02:45:21.806Z,100.00
2022-10-10T02:50:26.434Z,100.00
2022-10-10T02:55:28.993Z,100.00
2022-10-10T03:00:31.512Z,100.00
2022-10-10T03:05:35.450Z,100.00
2022-10-10T03:10:38.449Z,100.00
2022-10-10T03:15:40.961Z,100.00
2022-10-10T03:20:45.651Z,100.00
2022-10-10T03:25:48.692Z,100.00
2022-10-10T03:30:51.219Z,100.00
2022-10-10T03:35:55.091Z,100.00
2022-10-10T03:40:57.605Z,100.00
2022-10-10T03:46:00.146Z,100.00
2022-10-10T03:51:04.356Z,100.00
2022-10-10T03:56:07.626Z,100.00
2022-10-10T04:01:10.175Z,100.00
2022-10-10T04:06:36.008Z,100.00
2022-10-10T04:11:38.823Z,100.00
2022-10-10T04:16:41.348Z,100.00
2022-10-10T04:21:45.486Z,100.00
2022-10-10T04:26:48.016Z,100.00
2022-10-10T04:31:50.598Z,100.00
2022-10-10T04:36:54.464Z,100.00
2022-10-10T04:41:57.090Z,100.00
2022-10-10T04:46:59.717Z,100.00
2022-10-10T04:52:03.601Z,100.00
2022-10-10T04:57:08.244Z,100.00
2022-10-10T05:02:11.331Z,100.00
2022-10-10T05:07:15.241Z,100.00
2022-10-10T05:12:17.838Z,100.00
2022-10-10T05:17:20.688Z,100.00
2022-10-10T05:22:25.089Z,100.00
2022-10-10T05:27:27.863Z,100.00
2022-10-10T05:32:33.839Z,100.00
2022-10-10T05:37:38.547Z,100.00
2022-10-10T05:42:41.084Z,100.00
2022-10-10T05:47:43.711Z,100.00
2022-10-10T05:52:48.089Z,100.00
2022-10-10T05:57:50.946Z,100.00
2022-10-10T06:02:54.012Z,100.00
2022-10-10T06:08:10.752Z,100.00
2022-10-10T06:13:21.631Z,100.00
2022-10-10T06:18:27.008Z,100.00
2022-10-10T06:23:30.977Z,100.00
2022-10-10T06:28:35.211Z,100.00
2022-10-10T06:33:38.068Z,100.00
2022-10-10T06:38:43.987Z,100.00
2022-10-10T06:43:46.500Z,100.00
2022-10-10T06:48:49.300Z,100.00
2022-10-10T06:53:53.191Z,100.00
2022-10-10T06:58:56.340Z,100.00
2022-10-10T07:03:59.279Z,100.00
2022-10-10T07:09:03.322Z,100.00
2022-10-10T07:14:05.940Z,100.00
2022-10-10T07:19:08.629Z,100.00
2022-10-10T07:24:12.704Z,100.00
2022-10-10T07:29:15.555Z,100.00
2022-10-10T07:34:18.134Z,100.00
2022-10-10T07:39:23.266Z,100.00
2022-10-10T07:44:26.079Z,100.00
2022-10-10T07:49:28.837Z,100.00
2022-10-10T07:54:33.827Z,100.00
2022-10-10T07:59:36.544Z,100.00
2022-10-10T08:04:40.287Z,100.00
2022-10-10T08:09:44.151Z,100.00
2022-10-10T08:14:46.771Z,100.00
2022-10-10T08:19:49.308Z,100.00
2022-10-10T08:24:53.615Z,100.00
2022-10-10T08:29:56.179Z,100.00
2022-10-10T08:34:58.734Z,100.00
2022-10-10T08:40:02.887Z,100.00
2022-10-10T08:45:12.150Z,100.00
2022-10-10T08:50:19.433Z,100.00
2022-10-10T08:55:30.777Z,100.00
2022-10-10T09:00:41.097Z,100.00
2022-10-10T09:05:56.848Z,100.00
2022-10-10T09:11:10.995Z,100.00
2022-10-10T09:16:22.246Z,100.00
2022-10-10T09:21:28.993Z,100.00
2022-10-10T09:26:40.664Z,100.00
2022-10-10T09:31:49.337Z,100.00
2022-10-10T09:36:54.221Z,100.00
2022-10-10T09:42:03.660Z,100.00
2022-10-10T09:47:06.242Z,100.00
2022-10-10T09:52:24.725Z,100.00
2022-10-10T09:57:33.637Z,100.00
2022-10-10T10:02:36.177Z,100.00
2022-10-10T10:07:48.793Z,100.00
2022-10-10T10:12:53.232Z,100.00
2022-10-10T10:18:12.399Z,100.00
2022-10-10T10:23:26.540Z,100.00
2022-10-10T10:28:31.215Z,100.00
2022-10-10T10:33:44.936Z,100.00
2022-10-10T10:38:52.981Z,100.00
2022-10-10T10:44:15.737Z,100.00
2022-10-10T10:49:25.631Z,100.00
2022-10-10T10:54:49.200Z,100.00
2022-10-10T11:00:26.472Z,100.00
2022-10-10T11:05:41.305Z,100.00
2022-10-10T11:10:52.587Z,100.00
2022-10-10T11:16:07.510Z,100.00
2022-10-10T11:21:18.211Z,100.00
2022-10-10T11:26:24.903Z,100.00
2022-10-10T11:31:34.800Z,100.00
2022-10-10T11:36:44.059Z,100.00
2022-10-10T11:41:52.045Z,100.00
2022-10-10T11:47:02.921Z,100.00
2022-10-10T11:52:35.421Z,100.00
2022-10-10T11:57:42.519Z,100.00
2022-10-10T12:02:48.357Z,100.00
2022-10-10T12:08:05.797Z,100.00
2022-10-10T12:13:23.430Z,100.00
2022-10-10T12:18:31.962Z,100.00
2022-10-10T12:23:35.023Z,100.00
2022-10-10T12:28:58.569Z,100.00
2022-10-10T12:34:15.564Z,100.00
2022-10-10T12:39:37.816Z,100.00
2022-10-10T12:44:45.510Z,100.00
2022-10-10T12:49:52.244Z,100.00
2022-10-10T12:55:06.550Z,100.00
2022-10-10T13:00:17.919Z,99.48
2022-10-10T13:05:27.292Z,99.79
2022-10-10T13:10:31.302Z,99.07
2022-10-10T13:15:36.483Z,97.66
2022-10-10T13:20:41.660Z,96.26
2022-10-10T13:25:47.235Z,97.83
2022-10-10T13:30:51.324Z,96.02
2022-10-10T13:36:06.328Z,97.74
2022-10-10T13:41:09.325Z,98.17
2022-10-10T13:46:21.611Z,99.57
2022-10-10T13:51:44.882Z,99.13
2022-10-10T13:56:47.500Z,100.00
2022-10-10T14:01:59.263Z,99.91
2022-10-10T14:07:07.068Z,99.93
2022-10-10T14:12:17.997Z,99.92
2022-10-10T14:17:20.743Z,99.69
2022-10-10T14:22:24.934Z,96.00
2022-10-10T14:27:27.912Z,95.05
2022-10-10T14:32:31.072Z,93.26
2022-10-10T14:37:38.460Z,93.85
2022-10-10T14:42:41.429Z,94.86
2022-10-10T14:47:43.977Z,96.46
2022-10-10T14:52:47.854Z,98.32
2022-10-10T14:57:50.444Z,100.00
2022-10-10T15:02:53.113Z,100.00
2022-10-10T15:07:57.037Z,100.00
2022-10-10T15:12:59.559Z,100.00
2022-10-10T15:18:02.218Z,100.00
2022-10-10T15:23:09.075Z,100.00
2022-10-10T15:28:11.704Z,100.00
2022-10-10T15:33:14.264Z,100.00
2022-10-10T15:38:18.259Z,100.00
2022-10-10T15:43:20.781Z,100.00
2022-10-10T15:48:23.624Z,100.00
2022-10-10T15:53:29.176Z,100.00
2022-10-10T15:58:32.065Z,100.00
2022-10-10T16:03:34.726Z,100.00
2022-10-10T16:08:39.740Z,100.00
2022-10-10T16:13:43.369Z,100.00
2022-10-10T16:18:46.052Z,100.00
2022-10-10T16:23:55.629Z,100.00
2022-10-10T16:29:01.848Z,100.00
2022-10-10T16:34:04.483Z,100.00
2022-10-10T16:39:08.427Z,100.00
2022-10-10T16:44:11.346Z,100.00
2022-10-10T16:49:16.736Z,100.00
2022-10-10T16:54:20.830Z,100.00
2022-10-10T16:59:23.446Z,100.00
2022-10-10T17:04:26.007Z,100.00
2022-10-10T17:09:30.752Z,100.00
2022-10-10T17:14:33.476Z,100.00
2022-10-10T17:19:36.584Z,100.00
2022-10-10T17:24:41.164Z,100.00
2022-10-10T17:29:43.738Z,100.00
2022-10-10T17:34:46.409Z,100.00
2022-10-10T17:39:50.361Z,100.00
2022-10-10T17:44:56.698Z,100.00
2022-10-10T17:49:59.366Z,100.00
2022-10-10T17:55:03.266Z,100.00
2022-10-10T18:00:07.055Z,100.00
2022-10-10T18:05:09.874Z,100.00
2022-10-10T18:10:13.824Z,100.00
2022-10-10T18:15:16.615Z,100.00
2022-10-10T18:27:08.021Z,100.00
2022-10-10T18:32:13.803Z,100.00
2022-10-10T18:37:17.404Z,100.00
2022-10-10T18:42:21.455Z,100.00
2022-10-10T18:47:24.165Z,100.00
2022-10-10T18:52:28.714Z,100.00
2022-10-10T18:57:32.785Z,100.00
2022-10-10T19:02:35.355Z,100.00
2022-10-10T19:07:38.305Z,100.00
2022-10-10T19:12:47.194Z,100.00
2022-10-10T19:17:49.993Z,100.00
2022-10-10T19:22:52.610Z,100.00
2022-10-10T19:27:57.393Z,100.00
2022-10-10T19:33:00.279Z,100.00
2022-10-10T19:38:03.026Z,100.00
2022-10-10T19:43:07.003Z,100.00
2022-10-10T19:48:09.740Z,100.00
2022-10-10T19:53:14.544Z,100.00
2022-10-10T19:58:18.687Z,100.00
2022-10-10T20:03:21.275Z,100.00
2022-10-10T20:08:23.813Z,100.00
2022-10-10T20:13:28.898Z,100.00
2022-10-10T20:18:34.166Z,100.00
2022-10-10T20:23:36.761Z,100.00
2022-10-10T20:28:41.085Z,100.00
2022-10-10T20:33:44.405Z,100.00
2022-10-10T20:38:53.396Z,100.00
2022-10-10T20:43:58.934Z,100.00
2022-10-10T20:49:03.355Z,100.00
2022-10-10T20:54:07.126Z,100.00
2022-10-10T20:59:11.614Z,100.00
2022-10-10T21:04:14.893Z,100.00
2022-10-10T21:09:17.472Z,100.00
2022-10-10T21:14:21.741Z,100.00
2022-10-10T21:19:24.276Z,100.00
2022-10-10T21:24:26.824Z,100.00
2022-10-10T21:29:30.818Z,100.00
2022-10-10T21:34:33.627Z,100.00
2022-10-10T21:39:36.553Z,100.00
2022-10-10T21:44:40.635Z,100.00
2022-10-10T21:49:43.466Z,100.00
2022-10-10T21:54:46.040Z,100.00
2022-10-10T21:59:50.178Z,100.00
2022-10-10T22:04:54.872Z,100.00
2022-10-10T22:09:57.786Z,100.00
2022-10-10T22:15:01.711Z,100.00
2022-10-10T22:20:04.615Z,100.00
2022-10-10T22:25:09.549Z,100.00
2022-10-10T22:30:14.908Z,100.00
2022-10-10T22:35:17.463Z,100.00
2022-10-10T22:40:22.096Z,100.00
2022-10-10T22:45:27.366Z,100.00
2022-10-10T22:50:31.094Z,100.00
2022-10-10T22:55:34.952Z,100.00
2022-10-10T23:00:41.229Z,100.00
2022-10-10T23:05:44.329Z,100.00
2022-10-10T23:10:47.946Z,100.00
2022-10-10T23:15:53.351Z,100.00
2022-10-10T23:20:56.173Z,100.00
2022-10-10T23:25:58.738Z,100.00
2022-10-10T23:31:05.260Z,100.00
2022-10-10T23:36:10.628Z,100.00
2022-10-10T23:41:13.751Z,100.00
2022-10-10T23:46:17.632Z,100.00
2022-10-10T23:51:20.350Z,100.00
2022-10-10T23:56:23.045Z,100.00
